Time,TemperatureF,DewpointF,PressureIn,WindDirection,WindDirectionDegrees,WindSpeedMPH,WindSpeedGustMPH,Humidity,HourlyPrecipIn,Conditions,Clouds,dailyrainin,SolarRadiationWatts/m^2,SoftwareType,DateUTC
2014-02-21 00:03:00,65.0,48.0,-100.00,NW,317,4.0,14.0,54,0.00,,,0.00,0.000000,,2014-02-21 05:03:00,
2014-02-21 00:12:00,65.0,48.0,-100.00,NW,317,4.0,14.0,54,0.00,,,0.00,0.000000,,2014-02-21 05:12:00,
2014-02-21 00:54:00,59.0,48.0,-100.00,SSW,211,4.0,8.0,66,0.00,,,0.00,0.000000,,2014-02-21 05:54:00,
2014-02-21 01:03:00,59.0,48.0,-100.00,SSW,211,4.0,8.0,66,0.00,,,0.00,0.000000,,2014-02-21 06:03:00,
2014-02-21 01:42:00,60.0,51.0,-100.00,West,267,4.0,12.0,71,-99.99,,,0.00,0.000000,,2014-02-21 06:42:00,
2014-02-21 01:52:00,60.0,51.0,-100.00,West,267,4.0,12.0,71,-99.99,,,0.00,0.000000,,2014-02-21 06:52:00,
2014-02-21 02:02:00,60.0,51.0,-100.00,West,267,4.0,12.0,71,-99.99,,,0.00,0.000000,,2014-02-21 07:02:00,
2014-02-21 02:11:00,60.0,51.0,-100.00,West,267,4.0,12.0,71,-99.99,,,0.00,0.000000,,2014-02-21 07:11:00,
2014-02-21 02:42:00,67.0,52.0,-100.00,NNW,338,8.0,17.0,58,0.00,,,0.00,0.000000,,2014-02-21 07:42:00,
2014-02-21 02:53:00,67.0,52.0,-100.00,NNW,338,8.0,17.0,58,0.00,,,0.00,0.000000,,2014-02-21 07:53:00,
2014-02-21 03:01:00,67.0,52.0,-100.00,NNW,338,8.0,17.0,58,0.00,,,0.00,0.000000,,2014-02-21 08:01:00,
2014-02-21 03:11:00,67.0,52.0,-100.00,NNW,338,8.0,17.0,58,0.00,,,0.00,0.000000,,2014-02-21 08:11:00,
2014-02-21 03:42:00,64.0,50.0,-100.00,NNW,329,5.0,13.0,61,0.00,,,0.00,0.000000,,2014-02-21 08:42:00,
2014-02-21 03:52:00,64.0,50.0,-100.00,NNW,329,5.0,13.0,61,0.00,,,0.00,0.000000,,2014-02-21 08:52:00,
2014-02-21 04:03:00,64.0,50.0,-100.00,NNW,329,5.0,13.0,61,0.00,,,0.00,0.000000,,2014-02-21 09:03:00,
2014-02-21 04:12:00,64.0,50.0,-100.00,NNW,329,5.0,13.0,61,0.00,,,0.00,0.000000,,2014-02-21 09:12:00,
2014-02-21 04:43:00,63.0,50.0,-100.00,WNW,303,4.0,8.0,63,0.00,,,0.00,0.000000,,2014-02-21 09:43:00,
2014-02-21 04:54:00,63.0,50.0,-100.00,WNW,303,4.0,8.0,63,0.00,,,0.00,0.000000,,2014-02-21 09:54:00,
2014-02-21 05:03:00,63.0,50.0,-100.00,WNW,303,4.0,8.0,63,0.00,,,0.00,0.000000,,2014-02-21 10:03:00,
2014-02-21 05:13:00,63.0,50.0,-100.00,WNW,303,4.0,8.0,63,0.00,,,0.00,0.000000,,2014-02-21 10:13:00,
2014-02-21 06:12:00,55.0,54.0,-100.00,SW,216,3.0,16.0,95,0.05,,,0.05,0.000000,,2014-02-21 11:12:00,
2014-02-21 06:43:00,55.0,54.0,-100.00,SW,228,3.0,14.0,95,0.11,,,0.16,0.000000,,2014-02-21 11:43:00,
2014-02-21 06:53:00,55.0,54.0,-100.00,SW,228,3.0,14.0,95,0.11,,,0.16,0.000000,,2014-02-21 11:53:00,
2014-02-21 07:02:00,55.0,54.0,-100.00,SW,228,3.0,14.0,95,0.11,,,0.16,0.000000,,2014-02-21 12:02:00,
2014-02-21 07:12:00,55.0,54.0,-100.00,SW,228,3.0,14.0,95,0.11,,,0.16,0.000000,,2014-02-21 12:12:00,
2014-02-21 07:42:00,48.0,45.0,-100.00,SE,126,3.0,22.0,91,0.05,,,0.21,0.000000,,2014-02-21 12:42:00,
2014-02-21 07:52:00,48.0,45.0,-100.00,SE,126,3.0,22.0,91,0.05,,,0.21,0.000000,,2014-02-21 12:52:00,
2014-02-21 08:02:00,48.0,45.0,-100.00,SE,126,3.0,22.0,91,0.05,,,0.21,0.000000,,2014-02-21 13:02:00,
2014-02-21 08:11:00,48.0,45.0,-100.00,SE,126,3.0,22.0,91,0.05,,,0.21,0.000000,,2014-02-21 13:11:00,
2014-02-21 08:42:00,45.0,43.0,-100.00,WSW,247,5.0,13.0,92,0.08,,,0.29,3.000000,,2014-02-21 13:42:00,
2014-02-21 08:52:00,45.0,43.0,-100.00,WSW,247,5.0,13.0,92,0.08,,,0.29,3.000000,,2014-02-21 13:52:00,
2014-02-21 09:02:00,45.0,43.0,-100.00,WSW,247,5.0,13.0,92,0.08,,,0.29,3.000000,,2014-02-21 14:02:00,
2014-02-21 09:11:00,45.0,43.0,-100.00,WSW,247,5.0,13.0,92,0.08,,,0.29,3.000000,,2014-02-21 14:11:00,
2014-02-21 09:42:00,42.0,39.0,-100.00,West,263,6.0,14.0,90,0.07,,,0.36,15.000000,,2014-02-21 14:42:00,
2014-02-21 09:53:00,42.0,39.0,-100.00,West,263,6.0,14.0,90,0.07,,,0.36,15.000000,,2014-02-21 14:53:00,
2014-02-21 10:02:00,42.0,39.0,-100.00,West,263,6.0,14.0,90,0.07,,,0.36,15.000000,,2014-02-21 15:02:00,
2014-02-21 10:11:00,42.0,39.0,-100.00,West,263,6.0,14.0,90,0.07,,,0.36,15.000000,,2014-02-21 15:11:00,
2014-02-21 10:43:00,42.0,39.0,-100.00,WSW,238,3.0,15.0,90,0.05,,,0.41,92.000000,,2014-02-21 15:43:00,
2014-02-21 10:53:00,42.0,39.0,-100.00,WSW,238,3.0,15.0,90,0.05,,,0.41,92.000000,,2014-02-21 15:53:00,
2014-02-21 11:03:00,42.0,39.0,-100.00,WSW,238,3.0,15.0,90,0.05,,,0.41,92.000000,,2014-02-21 16:03:00,
2014-02-21 11:13:00,42.0,39.0,-100.00,WSW,238,3.0,15.0,90,0.05,,,0.41,92.000000,,2014-02-21 16:13:00,
2014-02-21 11:43:00,44.0,31.0,-100.00,West,274,5.0,10.0,60,0.02,,,0.43,206.000000,,2014-02-21 16:43:00,
2014-02-21 11:53:00,44.0,31.0,-100.00,West,274,5.0,10.0,60,0.02,,,0.43,206.000000,,2014-02-21 16:53:00,
2014-02-21 12:02:00,44.0,31.0,-100.00,West,274,5.0,10.0,60,0.02,,,0.43,206.000000,,2014-02-21 17:02:00,
2014-02-21 12:12:00,44.0,31.0,-100.00,West,274,5.0,10.0,60,0.02,,,0.43,206.000000,,2014-02-21 17:12:00,
2014-02-21 12:42:00,48.0,26.0,-100.00,West,268,5.0,16.0,42,0.00,,,0.43,533.000000,,2014-02-21 17:42:00,
2014-02-21 12:52:00,48.0,26.0,-100.00,West,268,5.0,16.0,42,0.00,,,0.43,533.000000,,2014-02-21 17:52:00,
2014-02-21 13:02:00,48.0,26.0,-100.00,West,268,5.0,16.0,42,0.00,,,0.43,533.000000,,2014-02-21 18:02:00,
2014-02-21 13:13:00,48.0,26.0,-100.00,West,268,5.0,16.0,42,0.00,,,0.43,533.000000,,2014-02-21 18:13:00,
2014-02-21 13:43:00,51.0,28.0,-100.00,West,261,8.0,20.0,41,0.00,,,-99.99,649.000000,,2014-02-21 18:43:00,
2014-02-21 13:52:00,51.0,28.0,-100.00,West,261,8.0,20.0,41,0.00,,,-99.99,649.000000,,2014-02-21 18:52:00,
2014-02-21 14:02:00,51.0,28.0,-100.00,West,261,8.0,20.0,41,0.00,,,-99.99,649.000000,,2014-02-21 19:02:00,
2014-02-21 14:12:00,51.0,28.0,-100.00,West,261,8.0,20.0,41,0.00,,,-99.99,649.000000,,2014-02-21 19:12:00,
2014-02-21 14:42:00,54.0,27.0,-100.00,WSW,257,6.0,16.0,35,0.00,,,0.43,613.000000,,2014-02-21 19:42:00,
2014-02-21 14:52:00,54.0,27.0,-100.00,WSW,257,6.0,16.0,35,0.00,,,0.43,613.000000,,2014-02-21 19:52:00,
2014-02-21 15:02:00,54.0,27.0,-100.00,WSW,257,6.0,16.0,35,0.00,,,0.43,613.000000,,2014-02-21 20:02:00,
2014-02-21 15:12:00,54.0,27.0,-100.00,WSW,257,6.0,16.0,35,0.00,,,0.43,613.000000,,2014-02-21 20:12:00,
2014-02-21 15:42:00,55.0,23.0,-100.00,West,259,6.0,17.0,28,0.00,,,0.43,521.000000,,2014-02-21 20:42:00,
2014-02-21 15:52:00,55.0,23.0,-100.00,West,259,6.0,17.0,28,0.00,,,0.43,521.000000,,2014-02-21 20:52:00,
2014-02-21 16:02:00,55.0,23.0,-100.00,West,259,6.0,17.0,28,0.00,,,0.43,521.000000,,2014-02-21 21:02:00,
2014-02-21 16:11:00,55.0,23.0,-100.00,West,259,6.0,17.0,28,0.00,,,0.43,521.000000,,2014-02-21 21:11:00,
2014-02-21 16:43:00,55.0,18.0,-100.00,West,272,7.0,18.0,23,0.00,,,0.43,395.000000,,2014-02-21 21:43:00,
2014-02-21 16:54:00,55.0,18.0,-100.00,West,272,7.0,18.0,23,0.00,,,0.43,395.000000,,2014-02-21 21:54:00,
2014-02-21 17:03:00,55.0,18.0,-100.00,West,272,7.0,18.0,23,0.00,,,0.43,395.000000,,2014-02-21 22:03:00,
2014-02-21 17:12:00,55.0,18.0,-100.00,West,272,7.0,18.0,23,0.00,,,0.43,395.000000,,2014-02-21 22:12:00,
2014-02-21 17:43:00,51.0,16.0,-100.00,SW,230,4.0,15.0,25,0.00,,,0.43,89.000000,,2014-02-21 22:43:00,
2014-02-21 17:53:00,51.0,16.0,-100.00,SW,230,4.0,15.0,25,0.00,,,0.43,89.000000,,2014-02-21 22:53:00,
2014-02-21 18:02:00,51.0,16.0,-100.00,SW,230,4.0,15.0,25,0.00,,,0.43,89.000000,,2014-02-21 23:02:00,
2014-02-21 18:12:00,51.0,16.0,-100.00,SW,230,4.0,15.0,25,0.00,,,0.43,89.000000,,2014-02-21 23:12:00,
2014-02-21 19:12:00,44.0,23.0,-100.00,SSE,166,3.0,7.0,44,0.00,,,0.43,10.000000,,2014-02-22 00:12:00,
2014-02-21 20:53:00,36.0,29.0,-100.00,SW,224,2.0,5.0,75,0.00,,,0.43,0.000000,,2014-02-22 01:53:00,
2014-02-21 21:02:00,36.0,29.0,-100.00,SW,224,2.0,5.0,75,0.00,,,0.43,0.000000,,2014-02-22 02:02:00,
2014-02-21 21:12:00,36.0,29.0,-100.00,SW,224,2.0,5.0,75,0.00,,,0.43,0.000000,,2014-02-22 02:12:00,
2014-02-21 22:12:00,33.0,27.0,-100.00,South,189,2.0,4.0,79,0.00,,,0.43,0.000000,,2014-02-22 03:12:00,
2014-02-21 22:53:00,31.0,27.0,-100.00,SSW,210,2.0,4.0,85,0.00,,,0.43,0.000000,,2014-02-22 03:53:00,
2014-02-21 23:03:00,31.0,27.0,-100.00,SSW,210,2.0,4.0,85,0.00,,,0.43,0.000000,,2014-02-22 04:03:00,
2014-02-21 23:13:00,31.0,27.0,-100.00,SSW,210,2.0,4.0,85,0.00,,,0.43,0.000000,,2014-02-22 04:13:00,
2014-02-21 23:43:00,30.0,28.0,-100.00,SSW,197,2.0,4.0,91,0.00,,,0.43,0.000000,,2014-02-22 04:43:00,
2014-02-21 23:52:00,30.0,28.0,-100.00,SSW,197,2.0,4.0,91,0.00,,,0.43,0.000000,,2014-02-22 04:52:00,